Time;durP1;ratioP1;P1;durP2;ratioP2;P2;SDS_P1;SDS_P2;PMS_P1;PMS_P2;Temp;Humidity;BMP_temperature;BMP_pressure;BME280_temperature;BME280_humidity;BME280_pressure;Samples;Min_cycle;Max_cycle;Signal;HPM_P1;HPM_P2
2021/10/20 00:03:20;;;;;;;2.40;2.17;;;18.50;76.40;;;;;;10495327;28;20572;-69
2021/10/20 00:08:42;;;;;;;2.17;1.97;;;18.40;76.40;;;;;;10494354;28;20227;-70
2021/10/20 00:14:06;;;;;;;2.20;1.93;;;18.50;76.40;;;;;;10498319;28;20211;-69
2021/10/20 00:19:28;;;;;;;2.17;1.97;;;18.40;76.40;;;;;;10533670;28;20614;-70
2021/10/20 00:24:50;;;;;;;2.20;2.00;;;18.50;76.50;;;;;;10511134;28;20201;-69
2021/10/20 00:30:15;;;;;;;2.00;1.90;;;18.50;76.50;;;;;;10494830;28;20247;-69
2021/10/20 00:35:38;;;;;;;2.40;2.10;;;18.40;76.50;;;;;;10493686;28;20219;-70
2021/10/20 00:41:00;;;;;;;2.20;2.00;;;18.40;76.40;;;;;;10493493;28;20195;-70
2021/10/20 00:46:28;;;;;;;2.60;2.20;;;18.40;76.50;;;;;;10499811;28;20734;-70
2021/10/20 00:51:50;;;;;;;2.13;1.93;;;18.40;76.50;;;;;;10493159;28;20678;-69
2021/10/20 00:57:13;;;;;;;2.30;2.10;;;18.40;76.50;;;;;;10520183;28;20227;-69
2021/10/20 01:02:39;;;;;;;2.63;2.03;;;18.40;76.60;;;;;;10533636;28;20192;-70
2021/10/20 01:08:01;;;;;;;2.60;2.00;;;18.40;76.60;;;;;;10497146;28;20629;-69
2021/10/20 01:13:24;;;;;;;2.33;2.10;;;18.40;76.60;;;;;;10492791;28;20729;-69
2021/10/20 01:18:47;;;;;;;2.30;2.10;;;18.40;76.60;;;;;;10513876;28;20595;-69
2021/10/20 01:24:11;;;;;;;2.10;1.90;;;18.40;76.60;;;;;;10512021;28;20591;-69
2021/10/20 01:29:33;;;;;;;2.13;1.93;;;18.30;76.50;;;;;;10541716;28;20215;-69
2021/10/20 01:34:56;;;;;;;2.20;2.00;;;18.40;76.60;;;;;;10543280;28;20207;-70
2021/10/20 01:40:20;;;;;;;2.20;1.87;;;18.40;76.60;;;;;;10542401;28;20199;-69
2021/10/20 01:45:42;;;;;;;2.57;2.37;;;18.40;76.60;;;;;;10542925;28;20724;-69
2021/10/20 01:51:04;;;;;;;2.37;2.00;;;18.30;76.50;;;;;;10508781;28;20211;-70
2021/10/20 01:56:27;;;;;;;2.30;2.10;;;18.30;76.60;;;;;;10543233;28;20219;-69
2021/10/20 02:01:50;;;;;;;2.13;1.93;;;18.40;76.60;;;;;;10541544;28;20195;-70
2021/10/20 02:07:12;;;;;;;2.50;1.97;;;18.40;76.60;;;;;;10540678;28;20216;-70
2021/10/20 02:12:35;;;;;;;2.30;2.10;;;18.40;76.60;;;;;;10540419;28;20215;-69
2021/10/20 02:17:57;;;;;;;2.20;2.00;;;18.30;76.60;;;;;;10531368;28;20694;-70
2021/10/20 02:23:20;;;;;;;2.23;1.90;;;18.30;76.60;;;;;;10540852;28;20533;-69
2021/10/20 02:28:44;;;;;;;2.53;2.33;;;18.30;76.60;;;;;;10525084;28;20224;-70
2021/10/20 02:34:06;;;;;;;2.57;1.73;;;18.40;76.70;;;;;;10499173;28;20212;-68
2021/10/20 02:39:28;;;;;;;2.20;2.00;;;18.30;76.60;;;;;;10535704;28;20241;-70
2021/10/20 02:44:51;;;;;;;2.33;2.03;;;18.30;76.60;;;;;;10539524;28;20199;-70
2021/10/20 02:50:14;;;;;;;2.00;1.90;;;18.30;76.60;;;;;;10501868;28;20220;-71
2021/10/20 02:55:39;;;;;;;2.63;2.20;;;18.30;76.60;;;;;;10497719;28;20220;-70
2021/10/20 03:01:03;;;;;;;2.23;2.03;;;18.30;76.60;;;;;;10509785;28;20623;-69
2021/10/20 03:06:25;;;;;;;2.47;2.27;;;18.30;76.60;;;;;;10537040;28;20219;-69
2021/10/20 03:11:47;;;;;;;2.20;2.10;;;18.30;76.60;;;;;;10528479;28;20223;-70
2021/10/20 03:17:11;;;;;;;3.23;2.13;;;18.30;76.60;;;;;;10498628;28;20212;-69
2021/10/20 03:22:33;;;;;;;2.17;1.97;;;18.30;76.60;;;;;;10497223;28;20326;-69
2021/10/20 03:27:55;;;;;;;2.27;2.07;;;18.30;76.60;;;;;;10514458;28;20215;-70
2021/10/20 03:33:19;;;;;;;2.40;2.20;;;18.30;76.60;;;;;;10495973;28;20239;-70
2021/10/20 03:38:41;;;;;;;2.30;2.10;;;18.30;76.70;;;;;;10500231;28;20220;-70
2021/10/20 03:44:03;;;;;;;1.80;1.70;;;18.30;76.50;;;;;;10538231;28;20202;-68
2021/10/20 03:49:27;;;;;;;1.97;1.80;;;18.40;76.90;;;;;;10576768;22;20596;-68
2021/10/20 03:54:49;;;;;;;1.87;1.77;;;18.40;76.00;;;;;;10555182;28;20222;-67
2021/10/20 04:00:14;;;;;;;2.33;2.00;;;18.50;75.80;;;;;;10559903;28;20219;-66
2021/10/20 04:05:37;;;;;;;1.87;1.77;;;18.50;75.60;;;;;;10575054;28;20191;-69
2021/10/20 04:11:00;;;;;;;2.43;2.10;;;18.50;75.60;;;;;;10576733;28;20222;-67
2021/10/20 04:16:22;;;;;;;2.07;1.83;;;18.50;75.60;;;;;;10563763;28;20187;-67
2021/10/20 04:21:45;;;;;;;1.90;1.80;;;18.60;75.70;;;;;;10538137;28;20211;-67
2021/10/20 04:27:07;;;;;;;2.13;1.93;;;18.50;75.50;;;;;;10569942;28;20679;-68
2021/10/20 04:32:29;;;;;;;2.10;1.90;;;18.60;75.40;;;;;;10566357;28;20233;-66
2021/10/20 04:37:53;;;;;;;1.83;1.67;;;18.60;75.30;;;;;;10528231;28;20401;-67
2021/10/20 04:43:15;;;;;;;2.00;1.80;;;18.60;75.30;;;;;;10527893;28;20748;-67
2021/10/20 04:48:37;;;;;;;3.40;2.20;;;18.70;75.30;;;;;;10532786;28;20226;-67
2021/10/20 04:54:01;;;;;;;2.33;1.90;;;18.60;75.30;;;;;;10526650;28;20215;-67
2021/10/20 04:59:24;;;;;;;2.20;1.90;;;18.60;75.20;;;;;;10535524;28;20588;-67
2021/10/20 05:04:46;;;;;;;1.77;1.63;;;18.60;75.30;;;;;;10546659;28;20554;-67
2021/10/20 05:10:09;;;;;;;2.00;1.90;;;18.70;75.30;;;;;;10532270;28;20208;-67
2021/10/20 05:15:32;;;;;;;1.73;1.63;;;18.60;75.30;;;;;;10527048;28;20196;-67
2021/10/20 05:20:54;;;;;;;2.97;2.00;;;18.60;75.30;;;;;;10568360;28;20210;-66
2021/10/20 05:26:18;;;;;;;2.10;1.90;;;18.70;75.30;;;;;;10568925;28;20210;-66
2021/10/20 05:31:40;;;;;;;1.73;1.63;;;18.70;75.30;;;;;;10567873;28;20222;-67
2021/10/20 05:37:02;;;;;;;1.90;1.80;;;18.70;75.40;;;;;;10556759;28;20203;-67
2021/10/20 05:42:25;;;;;;;2.00;1.73;;;18.70;75.30;;;;;;10549054;28;20204;-67
2021/10/20 05:47:48;;;;;;;2.23;2.00;;;18.60;75.30;;;;;;10541124;28;20210;-67
2021/10/20 05:53:10;;;;;;;2.23;1.90;;;18.70;75.30;;;;;;10544698;28;20204;-65
2021/10/20 05:58:33;;;;;;;1.87;1.73;;;18.70;75.30;;;;;;10567286;28;20382;-65
2021/10/20 06:03:56;;;;;;;1.90;1.80;;;18.70;75.20;;;;;;10535675;28;20207;-65
2021/10/20 06:09:18;;;;;;;2.00;1.70;;;18.70;75.30;;;;;;10538865;28;20223;-65
2021/10/20 06:14:41;;;;;;;2.97;1.93;;;18.70;75.30;;;;;;10549237;28;20680;-68
2021/10/20 06:20:05;;;;;;;1.80;1.70;;;18.70;75.30;;;;;;10552746;28;20222;-67
2021/10/20 06:25:27;;;;;;;1.67;1.57;;;18.70;75.30;;;;;;10552570;28;20203;-66
2021/10/20 06:30:51;;;;;;;2.20;2.00;;;18.70;75.30;;;;;;10555796;28;20211;-67
2021/10/20 06:36:20;;;;;;;1.87;1.70;;;18.70;75.30;;;;;;10556450;28;20199;-70
2021/10/20 06:41:42;;;;;;;1.70;1.60;;;18.70;75.30;;;;;;10549147;28;20706;-67
2021/10/20 06:47:06;;;;;;;1.90;1.80;;;18.70;75.30;;;;;;10553609;28;20211;-66
2021/10/20 06:52:28;;;;;;;3.23;1.83;;;18.70;75.30;;;;;;10552065;28;20606;-65
2021/10/20 06:57:50;;;;;;;1.60;1.50;;;18.70;75.30;;;;;;10557628;28;20191;-70
2021/10/20 07:03:14;;;;;;;2.37;1.63;;;18.70;75.30;;;;;;10559944;28;20207;-65
2021/10/20 07:08:37;;;;;;;1.60;1.50;;;18.70;75.30;;;;;;10554744;28;20222;-66
2021/10/20 07:13:59;;;;;;;1.90;1.70;;;18.70;75.30;;;;;;10554420;28;20231;-67
2021/10/20 07:19:22;;;;;;;1.60;1.50;;;18.70;75.30;;;;;;10555576;28;20211;-66
2021/10/20 07:24:44;;;;;;;1.50;1.40;;;18.70;75.30;;;;;;10551186;28;20203;-66
2021/10/20 07:30:09;;;;;;;1.60;1.50;;;18.70;75.30;;;;;;10564840;28;20706;-66
2021/10/20 07:35:32;;;;;;;1.80;1.70;;;18.70;75.30;;;;;;10528281;28;20692;-66
2021/10/20 07:40:54;;;;;;;2.03;1.60;;;18.70;75.30;;;;;;10549913;28;20234;-65
2021/10/20 07:46:17;;;;;;;1.70;1.60;;;18.70;75.30;;;;;;10539306;28;20203;-66
2021/10/20 07:51:40;;;;;;;1.70;1.60;;;18.70;75.30;;;;;;10535369;28;20216;-64
2021/10/20 07:57:02;;;;;;;2.40;1.50;;;18.70;75.30;;;;;;10532986;28;20198;-65
2021/10/20 08:02:24;;;;;;;1.73;1.63;;;18.70;75.20;;;;;;10532109;28;20212;-66
2021/10/20 08:07:48;;;;;;;1.90;1.43;;;18.70;75.30;;;;;;10531868;28;20200;-65
2021/10/20 08:13:10;;;;;;;1.73;1.63;;;18.70;75.20;;;;;;10531814;28;20222;-67
2021/10/20 08:18:33;;;;;;;1.70;1.60;;;18.70;75.20;;;;;;10531210;28;20325;-66
2021/10/20 08:23:56;;;;;;;2.00;1.80;;;18.70;75.20;;;;;;10571450;28;20195;-66
2021/10/20 08:29:18;;;;;;;1.80;1.70;;;18.70;75.20;;;;;;10554434;28;20226;-65
2021/10/20 08:34:43;;;;;;;1.47;1.37;;;18.70;75.20;;;;;;10554004;28;20222;-67
2021/10/20 08:40:09;;;;;;;2.30;2.10;;;18.70;75.30;;;;;;10560227;28;20226;-67
2021/10/20 08:45:31;;;;;;;2.43;1.90;;;18.80;75.30;;;;;;10571793;28;20299;-65
2021/10/20 08:50:56;;;;;;;1.93;1.80;;;18.70;75.30;;;;;;10532031;28;20214;-66
2021/10/20 08:56:20;;;;;;;1.43;1.33;;;18.70;75.30;;;;;;10549319;28;20206;-65
2021/10/20 09:01:43;;;;;;;1.70;1.60;;;18.70;75.30;;;;;;10572082;28;20210;-65
2021/10/20 09:07:13;;;;;;;2.77;1.57;;;18.70;75.30;;;;;;10571438;28;20202;-64
2021/10/20 09:12:40;;;;;;;2.10;1.73;;;18.70;75.30;;;;;;10539942;28;20282;-64
2021/10/20 09:18:05;;;;;;;2.30;1.97;;;18.70;75.30;;;;;;10532488;28;20208;-64
2021/10/20 09:23:31;;;;;;;1.70;1.60;;;18.70;75.40;;;;;;10537123;28;20199;-65
2021/10/20 09:28:54;;;;;;;1.70;1.60;;;18.70;75.50;;;;;;10559498;28;20266;-65
2021/10/20 09:34:17;;;;;;;1.60;1.50;;;18.70;75.50;;;;;;10573460;28;20222;-66
2021/10/20 09:39:39;;;;;;;1.90;1.73;;;18.70;75.40;;;;;;10561407;28;20222;-65
2021/10/20 09:45:03;;;;;;;2.03;1.57;;;18.80;75.40;;;;;;10579043;28;20274;-65
2021/10/20 09:50:25;;;;;;;2.67;1.60;;;18.80;75.40;;;;;;10499591;22;20224;-64
2021/10/20 09:55:47;;;;;;;1.87;1.77;;;18.80;75.30;;;;;;10489534;28;20242;-65
2021/10/20 10:01:11;;;;;;;2.00;1.80;;;18.80;75.90;;;;;;10512481;28;20573;-64
2021/10/20 10:06:33;;;;;;;1.83;1.73;;;18.80;75.30;;;;;;10509683;28;20203;-67
2021/10/20 10:11:57;;;;;;;2.53;1.47;;;18.80;75.30;;;;;;10469508;28;20285;-67
2021/10/20 10:17:22;;;;;;;1.90;1.77;;;18.80;75.30;;;;;;10511537;28;20771;-67
2021/10/20 10:22:49;;;;;;;2.13;1.80;;;18.80;75.90;;;;;;10539869;28;20271;-67
2021/10/20 10:28:23;;;;;;;2.27;2.07;;;18.90;75.90;;;;;;10507644;28;20227;-69
2021/10/20 10:33:54;;;;;;;3.30;1.87;;;18.90;75.80;;;;;;10498489;28;20216;-68
2021/10/20 10:39:17;;;;;;;2.10;1.87;;;18.80;75.90;;;;;;10484560;28;20570;-69
2021/10/20 10:44:47;;;;;;;2.80;1.90;;;18.80;76.00;;;;;;10495087;28;20669;-68
2021/10/20 10:50:12;;;;;;;2.33;2.13;;;18.80;76.00;;;;;;10489544;28;20574;-68
2021/10/20 10:55:34;;;;;;;2.13;1.90;;;18.80;76.00;;;;;;10496479;28;20212;-67
2021/10/20 11:00:57;;;;;;;1.97;1.70;;;18.80;75.90;;;;;;10491277;28;20216;-71
2021/10/20 11:06:21;;;;;;;1.80;1.60;;;18.80;75.90;;;;;;10496416;28;20185;-69
2021/10/20 11:11:48;;;;;;;2.30;2.10;;;18.80;75.90;;;;;;10494611;28;20213;-68
2021/10/20 11:17:11;;;;;;;5.70;2.43;;;18.80;75.90;;;;;;10495097;28;20192;-68
2021/10/20 11:22:36;;;;;;;3.20;2.40;;;18.80;76.10;;;;;;10492463;28;20239;-68
2021/10/20 11:27:59;;;;;;;2.90;2.30;;;18.80;76.40;;;;;;10480152;28;20689;-71
2021/10/20 11:33:22;;;;;;;4.27;2.47;;;18.80;76.20;;;;;;10485822;28;20581;-70
2021/10/20 11:38:46;;;;;;;4.00;2.40;;;18.80;76.20;;;;;;10493959;28;20216;-70
2021/10/20 11:44:08;;;;;;;3.27;2.37;;;18.80;76.20;;;;;;10494888;28;20205;-68
2021/10/20 11:49:31;;;;;;;2.57;2.33;;;18.80;76.10;;;;;;10504776;28;20228;-68
2021/10/20 11:54:55;;;;;;;2.67;2.10;;;18.80;76.10;;;;;;10493933;28;20212;-68
2021/10/20 12:00:18;;;;;;;2.57;2.37;;;18.80;76.10;;;;;;10493274;28;20515;-68
2021/10/20 12:05:42;;;;;;;2.93;2.73;;;18.80;76.70;;;;;;10494021;28;20208;-68
2021/10/20 12:11:06;;;;;;;3.57;2.60;;;18.80;76.10;;;;;;10492734;28;20524;-68
2021/10/20 12:16:29;;;;;;;2.60;2.20;;;18.80;76.10;;;;;;10469795;28;20709;-68
2021/10/20 12:21:51;;;;;;;2.40;2.20;;;18.80;76.10;;;;;;10451608;28;20595;-74
2021/10/20 12:27:15;;;;;;;2.83;2.53;;;18.80;76.10;;;;;;10491005;28;20197;-72
2021/10/20 12:32:39;;;;;;;2.77;2.57;;;18.80;76.10;;;;;;10492826;28;20212;-72
2021/10/20 12:38:04;;;;;;;2.20;2.00;;;18.80;76.10;;;;;;10451889;28;20235;-71
2021/10/20 12:43:28;;;;;;;3.60;2.30;;;18.80;76.00;;;;;;10494697;28;20243;-71
2021/10/20 12:48:51;;;;;;;2.33;2.13;;;18.80;76.10;;;;;;10490644;28;20216;-71
2021/10/20 12:54:15;;;;;;;2.53;1.97;;;18.80;76.10;;;;;;10493486;28;20220;-71
2021/10/20 12:59:41;;;;;;;2.40;2.20;;;18.80;76.00;;;;;;10491897;28;20216;-71
2021/10/20 13:05:07;;;;;;;3.23;2.50;;;18.80;76.00;;;;;;10484472;28;20193;-71
2021/10/20 13:10:29;;;;;;;3.80;2.10;;;18.80;76.10;;;;;;10492669;28;20254;-71
2021/10/20 13:15:55;;;;;;;2.30;2.10;;;18.80;76.00;;;;;;10492390;28;20212;-71
2021/10/20 13:21:17;;;;;;;2.60;2.17;;;18.80;76.00;;;;;;10491470;28;20262;-73
2021/10/20 13:26:40;;;;;;;2.63;2.43;;;18.80;76.00;;;;;;10492271;28;20196;-72
2021/10/20 13:32:03;;;;;;;2.80;2.37;;;18.80;76.00;;;;;;10491918;28;20214;-71
2021/10/20 13:37:26;;;;;;;2.83;2.30;;;18.80;76.00;;;;;;10492009;28;20196;-71
2021/10/20 13:42:49;;;;;;;2.30;2.10;;;18.80;76.60;;;;;;10493076;28;20188;-71
2021/10/20 13:48:13;;;;;;;2.43;2.23;;;18.80;76.00;;;;;;10492893;28;20362;-71
2021/10/20 13:53:35;;;;;;;2.50;2.20;;;18.80;75.90;;;;;;10490427;28;20239;-71
2021/10/20 13:58:57;;;;;;;4.17;2.47;;;18.80;76.00;;;;;;10489832;28;20224;-71
2021/10/20 14:04:22;;;;;;;2.60;2.40;;;18.80;76.10;;;;;;10490461;28;20197;-70
2021/10/20 14:09:44;;;;;;;2.90;2.30;;;18.80;76.10;;;;;;10489846;28;20592;-71
2021/10/20 14:15:07;;;;;;;2.10;2.00;;;18.80;76.10;;;;;;10490789;28;20582;-71
2021/10/20 14:20:31;;;;;;;3.90;2.10;;;18.80;76.10;;;;;;10487014;28;20278;-70
2021/10/20 14:25:53;;;;;;;2.57;2.27;;;18.80;76.10;;;;;;10455149;28;20190;-70
2021/10/20 14:31:15;;;;;;;2.67;2.33;;;18.80;76.10;;;;;;10457150;28;20213;-70
2021/10/20 14:36:39;;;;;;;2.80;2.50;;;18.80;76.10;;;;;;10477147;28;20220;-71
2021/10/20 14:42:03;;;;;;;2.90;2.40;;;18.80;76.10;;;;;;10519872;28;20215;-70
2021/10/20 14:47:25;;;;;;;4.33;2.87;;;18.80;76.10;;;;;;10518142;28;20201;-71
2021/10/20 14:52:49;;;;;;;3.20;2.83;;;18.80;76.10;;;;;;10461734;28;20239;-68
2021/10/20 14:58:12;;;;;;;2.97;2.67;;;18.80;76.30;;;;;;10474425;28;20217;-69
2021/10/20 15:03:35;;;;;;;3.50;2.70;;;18.90;77.20;;;;;;10481729;28;20192;-70
2021/10/20 15:08:58;;;;;;;5.37;2.80;;;18.90;77.50;;;;;;10482463;28;20225;-71
2021/10/20 15:14:20;;;;;;;4.37;2.40;;;18.90;77.30;;;;;;10488480;28;20581;-69
2021/10/20 15:19:50;;;;;;;3.17;2.30;;;18.90;77.00;;;;;;10486188;28;20223;-69
2021/10/20 15:25:14;;;;;;;4.97;2.90;;;18.90;77.00;;;;;;10490514;28;20752;-69
2021/10/20 15:30:38;;;;;;;5.30;3.27;;;19.00;77.10;;;;;;10479773;28;20217;-71
2021/10/20 15:36:00;;;;;;;3.90;3.13;;;19.00;76.80;;;;;;10493133;28;20255;-70
2021/10/20 15:41:23;;;;;;;3.10;2.80;;;19.00;76.60;;;;;;10487229;28;20686;-69
2021/10/20 15:46:46;;;;;;;3.87;2.70;;;19.00;76.50;;;;;;10509520;22;20241;-64
2021/10/20 15:52:09;;;;;;;3.43;3.00;;;18.90;76.50;;;;;;10485382;28;20204;-65
2021/10/20 15:57:32;;;;;;;4.90;2.90;;;18.90;76.50;;;;;;10465399;28;20221;-66
2021/10/20 16:02:56;;;;;;;5.93;3.40;;;18.90;76.50;;;;;;10457439;28;20203;-66
2021/10/20 16:08:18;;;;;;;3.30;3.00;;;18.90;76.50;;;;;;10453211;28;20221;-64
2021/10/20 16:13:41;;;;;;;5.30;3.57;;;18.90;76.50;;;;;;10451277;28;20221;-65
2021/10/20 16:19:03;;;;;;;4.43;3.30;;;18.90;76.50;;;;;;10451360;28;20213;-65
2021/10/20 16:24:25;;;;;;;6.00;3.07;;;18.90;76.40;;;;;;10436506;28;20220;-68
2021/10/20 16:29:49;;;;;;;4.07;3.30;;;18.90;76.40;;;;;;10439206;28;20228;-64
2021/10/20 16:35:11;;;;;;;4.03;3.10;;;18.90;76.40;;;;;;10442196;28;20220;-64
2021/10/20 16:40:34;;;;;;;6.63;3.40;;;18.90;76.40;;;;;;10458187;28;20221;-65
2021/10/20 16:45:57;;;;;;;4.53;3.23;;;18.90;76.40;;;;;;10446073;28;20194;-67
2021/10/20 16:51:19;;;;;;;4.83;3.40;;;18.80;76.30;;;;;;10433022;28;20234;-66
2021/10/20 16:56:47;;;;;;;3.53;3.23;;;18.80;76.20;;;;;;10431254;28;20221;-68
2021/10/20 17:02:11;;;;;;;4.07;3.10;;;18.80;76.20;;;;;;10431934;28;20346;-65
2021/10/20 17:07:36;;;;;;;3.47;2.80;;;18.90;76.20;;;;;;10425099;28;20210;-65
2021/10/20 17:13:00;;;;;;;4.33;3.33;;;18.90;76.10;;;;;;10430742;28;20275;-66
2021/10/20 17:18:23;;;;;;;3.40;3.10;;;18.90;76.10;;;;;;10432933;28;20220;-65
2021/10/20 17:23:45;;;;;;;3.13;2.77;;;18.90;76.10;;;;;;10455856;28;20188;-68
2021/10/20 17:29:08;;;;;;;3.97;3.50;;;18.90;76.10;;;;;;10434710;28;20225;-66
2021/10/20 17:34:31;;;;;;;3.30;3.00;;;18.90;76.30;;;;;;10450841;28;20219;-67
2021/10/20 17:39:53;;;;;;;2.90;2.60;;;19.00;77.10;;;;;;10434283;28;20220;-66
2021/10/20 17:45:19;;;;;;;3.23;2.80;;;19.00;77.50;;;;;;10444586;28;20201;-64
2021/10/20 17:50:42;;;;;;;4.13;3.00;;;19.10;77.40;;;;;;10451744;28;20424;-66
2021/10/20 17:56:05;;;;;;;5.00;3.17;;;19.10;77.20;;;;;;10449291;28;20470;-66
2021/10/20 18:01:27;;;;;;;2.97;2.70;;;19.10;77.10;;;;;;10456017;28;20197;-67
2021/10/20 18:06:50;;;;;;;4.63;3.37;;;19.10;77.30;;;;;;10472389;28;20209;-65
2021/10/20 18:12:12;;;;;;;4.60;2.83;;;19.00;77.20;;;;;;10455711;28;20193;-67
2021/10/20 18:17:36;;;;;;;4.80;2.90;;;19.00;77.20;;;;;;10457477;28;20229;-66
2021/10/20 18:23:00;;;;;;;2.87;2.57;;;19.00;77.20;;;;;;10457287;28;20224;-66
2021/10/20 18:28:22;;;;;;;3.17;2.87;;;19.00;77.20;;;;;;10446199;28;20236;-66
2021/10/20 18:33:44;;;;;;;7.00;3.00;;;19.00;77.20;;;;;;10437640;28;20584;-67
2021/10/20 18:39:11;;;;;;;3.23;2.77;;;19.00;77.10;;;;;;10452418;28;20786;-68
2021/10/20 18:44:33;;;;;;;4.65;2.70;;;19.00;77.20;;;;;;10476967;28;20498;-65
2021/10/20 18:49:56;;;;;;;2.70;2.40;;;19.00;77.20;;;;;;10464777;28;20217;-65
2021/10/20 18:55:19;;;;;;;3.00;2.70;;;19.00;77.40;;;;;;10491384;28;20689;-64
2021/10/20 19:00:41;;;;;;;4.57;3.00;;;19.10;77.50;;;;;;10481759;28;20432;-65
2021/10/20 19:06:04;;;;;;;3.10;2.80;;;19.30;76.30;;;;;;10493366;28;20195;-66
2021/10/20 19:11:27;;;;;;;4.07;3.20;;;19.20;76.50;;;;;;10448868;28;20435;-67
2021/10/20 19:16:49;;;;;;;3.20;2.60;;;19.70;74.90;;;;;;10455603;28;20707;-66
2021/10/20 19:22:11;;;;;;;4.03;2.20;;;19.40;75.70;;;;;;10462840;28;20715;-66
2021/10/20 19:27:35;;;;;;;5.03;2.73;;;19.20;76.20;;;;;;10433513;28;20585;-66
2021/10/20 19:32:58;;;;;;;2.67;2.47;;;19.10;76.50;;;;;;10434496;28;20205;-67
2021/10/20 19:38:20;;;;;;;3.10;2.60;;;19.10;76.60;;;;;;10434138;28;20317;-64
2021/10/20 19:43:44;;;;;;;3.57;2.40;;;19.10;76.80;;;;;;10441865;28;20190;-66
2021/10/20 19:49:08;;;;;;;2.20;1.90;;;19.00;76.80;;;;;;10472116;28;20597;-66
2021/10/20 19:54:30;;;;;;;5.20;2.30;;;19.00;76.80;;;;;;10429277;28;20267;-66
2021/10/20 19:59:55;;;;;;;2.30;2.10;;;19.00;76.80;;;;;;10438130;28;20217;-66
2021/10/20 20:05:17;;;;;;;3.60;2.60;;;19.00;76.80;;;;;;10449996;28;20278;-67
2021/10/20 20:10:41;;;;;;;2.23;2.03;;;19.00;76.90;;;;;;10451427;28;20220;-67
2021/10/20 20:16:05;;;;;;;2.47;2.20;;;19.00;76.90;;;;;;10450458;28;20240;-68
2021/10/20 20:21:27;;;;;;;3.90;2.40;;;19.00;76.90;;;;;;10444319;28;20196;-66
2021/10/20 20:26:50;;;;;;;2.67;2.03;;;19.00;76.80;;;;;;10445206;28;20599;-66
2021/10/20 20:32:14;;;;;;;2.50;2.13;;;19.00;76.80;;;;;;10445401;28;20208;-68
2021/10/20 20:37:36;;;;;;;2.33;2.13;;;19.00;76.80;;;;;;10447756;28;20229;-67
2021/10/20 20:42:58;;;;;;;2.60;2.40;;;19.00;76.80;;;;;;10446796;28;20203;-67
2021/10/20 20:48:22;;;;;;;3.13;2.40;;;19.00;76.80;;;;;;10445374;28;20229;-63
2021/10/20 20:53:44;;;;;;;2.40;2.20;;;19.00;76.90;;;;;;10447771;28;20343;-66
2021/10/20 20:59:07;;;;;;;2.83;2.20;;;19.00;77.00;;;;;;10447571;28;20228;-67
2021/10/20 21:04:30;;;;;;;2.40;2.00;;;18.90;76.90;;;;;;10446459;28;20196;-67
2021/10/20 21:09:52;;;;;;;2.30;1.93;;;18.90;77.00;;;;;;10451378;28;20247;-66
2021/10/20 21:15:15;;;;;;;2.80;2.03;;;18.90;77.10;;;;;;10447469;28;20228;-67
2021/10/20 21:20:38;;;;;;;2.63;1.50;;;18.90;77.10;;;;;;10447068;28;20219;-67
2021/10/20 21:26:00;;;;;;;2.27;1.63;;;18.90;77.20;;;;;;10448584;28;20197;-68
2021/10/20 21:31:23;;;;;;;2.17;1.97;;;18.90;77.20;;;;;;10458467;28;20204;-66
2021/10/20 21:36:46;;;;;;;2.40;2.00;;;18.90;77.20;;;;;;10466464;28;20300;-66
2021/10/20 21:42:09;;;;;;;2.90;2.00;;;18.90;77.30;;;;;;10459277;28;20204;-67
2021/10/20 21:47:31;;;;;;;2.43;1.53;;;18.80;77.20;;;;;;10464755;28;20225;-66
2021/10/20 21:52:54;;;;;;;1.93;1.77;;;18.80;77.30;;;;;;10453892;28;20204;-67
2021/10/20 21:58:17;;;;;;;2.23;2.00;;;18.80;77.40;;;;;;10455798;28;20761;-67
2021/10/20 22:03:39;;;;;;;1.83;1.70;;;18.80;77.40;;;;;;10477608;22;20298;-67
2021/10/20 22:09:03;;;;;;;2.10;1.90;;;18.80;77.40;;;;;;10472786;28;20216;-67
2021/10/20 22:14:25;;;;;;;3.30;1.80;;;18.80;77.40;;;;;;10493960;28;20310;-66
2021/10/20 22:19:49;;;;;;;1.70;1.60;;;18.80;77.40;;;;;;10499319;28;20217;-64
2021/10/20 22:25:13;;;;;;;1.83;1.60;;;18.70;77.40;;;;;;10499004;28;20596;-65
2021/10/20 22:30:35;;;;;;;1.50;1.40;;;18.80;77.50;;;;;;10498461;28;20217;-67
2021/10/20 22:35:57;;;;;;;1.97;1.50;;;18.70;77.40;;;;;;10498985;28;20584;-67
2021/10/20 22:41:21;;;;;;;1.70;1.60;;;18.70;77.40;;;;;;10498140;28;20219;-67
2021/10/20 22:46:44;;;;;;;2.03;1.73;;;18.70;77.40;;;;;;10496318;28;20193;-67
2021/10/20 22:52:07;;;;;;;1.77;1.67;;;18.70;77.50;;;;;;10497154;28;20220;-67
2021/10/20 22:57:31;;;;;;;1.47;1.37;;;18.70;77.50;;;;;;10497413;28;20216;-67
2021/10/20 23:02:53;;;;;;;1.50;1.40;;;18.70;77.50;;;;;;10491497;28;20219;-67
2021/10/20 23:08:16;;;;;;;1.90;1.80;;;18.70;77.60;;;;;;10492089;28;20239;-67
2021/10/20 23:13:40;;;;;;;2.07;1.47;;;18.70;77.50;;;;;;10494347;28;20401;-67
2021/10/20 23:19:02;;;;;;;2.70;1.63;;;18.70;77.50;;;;;;10496888;28;20326;-66
2021/10/20 23:24:25;;;;;;;1.90;1.70;;;18.70;77.40;;;;;;10487446;28;20189;-66
2021/10/20 23:29:48;;;;;;;1.87;1.47;;;18.60;77.40;;;;;;10497113;28;20521;-67
2021/10/20 23:35:11;;;;;;;1.53;1.43;;;18.70;77.40;;;;;;10496780;28;20215;-66
2021/10/20 23:40:33;;;;;;;1.67;1.57;;;18.60;77.40;;;;;;10494857;28;20703;-66
2021/10/20 23:45:56;;;;;;;1.53;1.43;;;18.60;77.40;;;;;;10468355;28;20197;-65
2021/10/20 23:51:18;;;;;;;2.40;1.33;;;18.70;77.40;;;;;;10495322;28;20673;-65
2021/10/20 23:56:41;;;;;;;1.93;1.73;;;18.60;77.40;;;;;;10475126;28;20234;-66
